Time;durP1;ratioP1;P1;durP2;ratioP2;P2;SDS_P1;SDS_P2;PMS_P1;PMS_P2;Temp;Humidity;BMP_temperature;BMP_pressure;BME280_temperature;BME280_humidity;BME280_pressure;Samples;Min_cycle;Max_cycle;Signal;HPM_P1;HPM_P2
2023/07/12 00:01:53;;;;;;;8.93;4.83;;;;;;;;;;5054010;28;20416;-52
2023/07/12 00:04:19;;;;;;;5.77;4.90;;;;;;;;;;5054568;28;20482;-52
2023/07/12 00:06:45;;;;;;;7.53;3.90;;;;;;;;;;5054119;28;20511;-52
2023/07/12 00:09:13;;;;;;;4.47;4.07;;;;;;;;;;5054065;28;20448;-52
2023/07/12 00:11:40;;;;;;;6.80;3.97;;;;;;;;;;5045969;28;20404;-52
2023/07/12 00:14:06;;;;;;;5.50;4.20;;;;;;;;;;5054221;28;20766;-52
2023/07/12 00:16:37;;;;;;;4.50;3.93;;;;;;;;;;5053945;28;20924;-52
2023/07/12 00:19:04;;;;;;;4.50;3.30;;;;;;;;;;5053980;28;20923;-52
2023/07/12 00:21:30;;;;;;;6.43;3.47;;;;;;;;;;5053758;28;20740;-52
2023/07/12 00:23:58;;;;;;;3.40;2.50;;;;;;;;;;5054488;28;20751;-51
2023/07/12 00:26:28;;;;;;;3.50;2.87;;;;;;;;;;5053875;28;20456;-52
2023/07/12 00:28:54;;;;;;;2.47;2.23;;;;;;;;;;5053671;28;20528;-52
2023/07/12 00:31:21;;;;;;;5.33;2.40;;;;;;;;;;5053494;28;20409;-52
2023/07/12 00:33:47;;;;;;;2.53;2.30;;;;;;;;;;5053059;28;20411;-52
2023/07/12 00:36:15;;;;;;;2.40;2.30;;;;;;;;;;5053586;28;20429;-51
2023/07/12 00:38:41;;;;;;;4.23;2.90;;;;;;;;;;5053631;28;20433;-52
2023/07/12 00:41:15;;;;;;;4.50;2.50;;;;;;;;;;5053419;28;20555;-53
2023/07/12 00:43:42;;;;;;;2.50;2.30;;;;;;;;;;5045699;28;20417;-52
2023/07/12 00:46:14;;;;;;;4.53;2.50;;;;;;;;;;5053522;28;20879;-52
2023/07/12 00:48:40;;;;;;;2.53;2.33;;;;;;;;;;5045645;28;20468;-52
2023/07/12 00:51:26;;;;;;;2.70;2.50;;;;;;;;;;5053281;28;20830;-52
2023/07/12 00:53:52;;;;;;;4.23;2.67;;;;;;;;;;5047146;28;20406;-52
2023/07/12 00:56:17;;;;;;;3.20;2.50;;;;;;;;;;5053213;28;20885;-52
2023/07/12 00:58:48;;;;;;;6.93;2.50;;;;;;;;;;5053374;28;20793;-52
2023/07/12 01:01:14;;;;;;;2.40;2.23;;;;;;;;;;5052568;28;20465;-52
2023/07/12 01:03:42;;;;;;;4.30;2.63;;;;;;;;;;5052571;28;20921;-52
2023/07/12 01:06:09;;;;;;;2.90;2.70;;;;;;;;;;5052599;28;20551;-51
2023/07/12 01:08:36;;;;;;;3.00;2.43;;;;;;;;;;5052809;28;20499;-52
2023/07/12 01:11:02;;;;;;;8.30;2.70;;;;;;;;;;5051097;28;20938;-52
2023/07/12 01:13:30;;;;;;;2.20;2.00;;;;;;;;;;5052664;28;20785;-52
2023/07/12 01:15:58;;;;;;;5.03;3.03;;;;;;;;;;5053133;28;20771;-53
2023/07/12 01:18:24;;;;;;;4.67;2.87;;;;;;;;;;5052758;28;20520;-53
2023/07/12 01:21:06;;;;;;;2.63;2.43;;;;;;;;;;5052606;28;20549;-53
2023/07/12 01:23:32;;;;;;;3.00;2.17;;;;;;;;;;5052688;28;20417;-52
2023/07/12 01:26:14;;;;;;;2.40;2.20;;;;;;;;;;5052866;28;20413;-53
2023/07/12 01:28:41;;;;;;;3.50;2.10;;;;;;;;;;5044767;28;20527;-52
2023/07/12 01:31:07;;;;;;;3.10;2.30;;;;;;;;;;5052597;28;20467;-51
2023/07/12 01:33:33;;;;;;;2.83;2.40;;;;;;;;;;5052481;28;20926;-52
2023/07/12 01:35:59;;;;;;;2.77;2.27;;;;;;;;;;5052808;28;20405;-52
2023/07/12 01:38:25;;;;;;;2.80;2.60;;;;;;;;;;5052416;28;20547;-50
2023/07/12 01:40:51;;;;;;;9.10;2.60;;;;;;;;;;5052434;28;20461;-51
2023/07/12 01:43:17;;;;;;;2.30;2.10;;;;;;;;;;5052484;28;20409;-52
2023/07/12 01:45:43;;;;;;;3.33;2.30;;;;;;;;;;5051463;28;20492;-52
2023/07/12 01:48:09;;;;;;;3.10;2.90;;;;;;;;;;5052034;28;20429;-52
2023/07/12 01:50:35;;;;;;;5.83;2.73;;;;;;;;;;5052082;28;20487;-52
2023/07/12 01:53:01;;;;;;;2.10;2.00;;;;;;;;;;5052431;28;20880;-52
2023/07/12 01:55:27;;;;;;;2.57;2.37;;;;;;;;;;5052242;28;20409;-53
2023/07/12 01:57:53;;;;;;;3.50;2.37;;;;;;;;;;5052146;28;20853;-52
2023/07/12 02:00:19;;;;;;;2.77;2.50;;;;;;;;;;5051860;28;20840;-52
2023/07/12 02:02:45;;;;;;;2.40;2.20;;;;;;;;;;5052078;28;20433;-52
2023/07/12 02:05:11;;;;;;;3.10;2.70;;;;;;;;;;5051896;28;20409;-51
2023/07/12 02:07:37;;;;;;;3.63;2.70;;;;;;;;;;5051764;28;20437;-51
2023/07/12 02:10:11;;;;;;;4.93;2.50;;;;;;;;;;5051743;28;20479;-53
2023/07/12 02:12:37;;;;;;;6.23;2.30;;;;;;;;;;5051943;28;20405;-52
2023/07/12 02:15:03;;;;;;;5.60;3.00;;;;;;;;;;5052235;28;20795;-52
2023/07/12 02:17:29;;;;;;;4.13;2.67;;;;;;;;;;5051630;28;20451;-52
2023/07/12 02:19:55;;;;;;;2.97;2.37;;;;;;;;;;5051508;28;20460;-53
2023/07/12 02:22:21;;;;;;;9.63;3.43;;;;;;;;;;5051874;28;20412;-52
2023/07/12 02:24:47;;;;;;;4.63;2.97;;;;;;;;;;5051727;28;20384;-51
2023/07/12 02:27:13;;;;;;;2.97;2.50;;;;;;;;;;5051649;28;20417;-51
2023/07/12 02:29:39;;;;;;;5.63;2.50;;;;;;;;;;5051535;28;20421;-51
2023/07/12 02:32:05;;;;;;;4.30;2.17;;;;;;;;;;5051612;28;20467;-53
2023/07/12 02:34:31;;;;;;;3.40;2.23;;;;;;;;;;5048021;28;20441;-52
2023/07/12 02:36:57;;;;;;;3.37;2.77;;;;;;;;;;5051708;28;20420;-52
2023/07/12 02:39:23;;;;;;;3.87;2.53;;;;;;;;;;5051264;28;20800;-53
2023/07/12 02:41:49;;;;;;;4.47;2.90;;;;;;;;;;5051368;28;20768;-52
2023/07/12 02:44:15;;;;;;;3.87;2.77;;;;;;;;;;5051579;28;20429;-52
2023/07/12 02:46:41;;;;;;;8.63;2.83;;;;;;;;;;5051404;28;20405;-52
2023/07/12 02:49:07;;;;;;;3.03;2.60;;;;;;;;;;5051314;28;20426;-51
2023/07/12 02:51:33;;;;;;;8.67;3.20;;;;;;;;;;5056018;28;20489;-52
2023/07/12 02:53:58;;;;;;;4.80;2.73;;;;;;;;;;5050772;28;20407;-53
2023/07/12 02:56:24;;;;;;;5.37;2.50;;;;;;;;;;5051939;28;20417;-52
2023/07/12 02:58:50;;;;;;;19.70;3.80;;;;;;;;;;5055530;28;20434;-52
2023/07/12 03:01:18;;;;;;;3.30;2.63;;;;;;;;;;5055097;28;20464;-52
2023/07/12 03:03:44;;;;;;;7.20;3.10;;;;;;;;;;5055386;28;20446;-51
2023/07/12 03:06:11;;;;;;;4.00;2.93;;;;;;;;;;5055346;28;20409;-52
2023/07/12 03:08:38;;;;;;;13.10;3.80;;;;;;;;;;5047033;28;20417;-52
2023/07/12 03:11:05;;;;;;;5.73;3.07;;;;;;;;;;5055196;28;20457;-51
2023/07/12 03:13:32;;;;;;;2.70;2.50;;;;;;;;;;5055075;28;20402;-51
2023/07/12 03:15:58;;;;;;;6.20;2.33;;;;;;;;;;5055364;28;20441;-52
2023/07/12 03:18:32;;;;;;;8.77;2.77;;;;;;;;;;5055203;28;20443;-52
2023/07/12 03:20:59;;;;;;;3.37;2.63;;;;;;;;;;5054813;28;20828;-52
2023/07/12 03:23:25;;;;;;;3.10;2.80;;;;;;;;;;5055022;28;20467;-52
2023/07/12 03:25:51;;;;;;;2.30;2.10;;;;;;;;;;5055150;28;20428;-52
2023/07/12 03:28:17;;;;;;;3.47;1.93;;;;;;;;;;5054854;28;20767;-52
2023/07/12 03:30:43;;;;;;;2.70;2.50;;;;;;;;;;5055114;28;20403;-52
2023/07/12 03:33:09;;;;;;;3.80;2.70;;;;;;;;;;5054838;28;20878;-52
2023/07/12 03:35:35;;;;;;;2.50;2.30;;;;;;;;;;5054753;28;20769;-52
2023/07/12 03:38:01;;;;;;;3.43;2.23;;;;;;;;;;5054822;28;20437;-51
2023/07/12 03:40:28;;;;;;;3.97;2.57;;;;;;;;;;5054536;28;20489;-52
2023/07/12 03:42:54;;;;;;;4.40;2.57;;;;;;;;;;5055311;28;20492;-52
2023/07/12 03:45:20;;;;;;;3.67;3.00;;;;;;;;;;5054565;28;20511;-51
2023/07/12 03:47:46;;;;;;;3.97;2.60;;;;;;;;;;5054748;28;20431;-52
2023/07/12 03:50:12;;;;;;;5.03;2.63;;;;;;;;;;5054568;28;20409;-51
2023/07/12 03:52:38;;;;;;;3.90;2.87;;;;;;;;;;5051507;28;20490;-51
2023/07/12 03:55:04;;;;;;;7.53;2.83;;;;;;;;;;5054484;28;20436;-53
2023/07/12 03:57:30;;;;;;;4.50;2.90;;;;;;;;;;5054391;28;20394;-52
2023/07/12 03:59:56;;;;;;;2.70;2.43;;;;;;;;;;5054315;28;20459;-53
2023/07/12 04:02:22;;;;;;;4.10;2.90;;;;;;;;;;5054334;28;20448;-53
2023/07/12 04:04:49;;;;;;;3.00;2.70;;;;;;;;;;5054423;28;20403;-52
2023/07/12 04:07:15;;;;;;;4.33;2.30;;;;;;;;;;5054000;28;20425;-52
2023/07/12 04:09:41;;;;;;;4.50;2.80;;;;;;;;;;5052936;28;20499;-51
2023/07/12 04:12:07;;;;;;;4.57;2.60;;;;;;;;;;5054137;28;20400;-52
2023/07/12 04:14:33;;;;;;;3.37;2.37;;;;;;;;;;5054102;28;20474;-52
2023/07/12 04:16:59;;;;;;;5.40;2.50;;;;;;;;;;5054248;28;20392;-52
2023/07/12 04:19:25;;;;;;;3.60;2.50;;;;;;;;;;5053864;28;20414;-53
2023/07/12 04:21:52;;;;;;;9.20;3.20;;;;;;;;;;5053909;28;20408;-51
2023/07/12 04:24:19;;;;;;;2.77;2.20;;;;;;;;;;5054409;28;20432;-53
2023/07/12 04:26:48;;;;;;;3.53;2.77;;;;;;;;;;5054289;28;20369;-51
2023/07/12 04:29:15;;;;;;;3.70;2.90;;;;;;;;;;5053963;28;20429;-52
2023/07/12 04:31:41;;;;;;;3.10;2.73;;;;;;;;;;5053616;28;20563;-52
2023/07/12 04:34:08;;;;;;;3.20;2.97;;;;;;;;;;5053723;28;20478;-52
2023/07/12 04:36:34;;;;;;;2.93;2.67;;;;;;;;;;5053803;28;20890;-52
2023/07/12 04:39:00;;;;;;;4.60;1.90;;;;;;;;;;5053567;28;20414;-51
2023/07/12 04:41:26;;;;;;;2.80;2.37;;;;;;;;;;5053226;28;20448;-51
2023/07/12 04:43:52;;;;;;;5.53;2.67;;;;;;;;;;5053632;28;20371;-52
2023/07/12 04:46:18;;;;;;;4.80;2.67;;;;;;;;;;5053494;28;20422;-52
2023/07/12 04:48:45;;;;;;;2.27;2.07;;;;;;;;;;5053396;28;20478;-52
2023/07/12 04:51:11;;;;;;;2.03;1.83;;;;;;;;;;5053232;28;20445;-50
2023/07/12 04:53:38;;;;;;;2.83;2.63;;;;;;;;;;5053287;28;20819;-52
2023/07/12 04:56:04;;;;;;;5.47;2.80;;;;;;;;;;5053695;28;20506;-52
2023/07/12 04:58:31;;;;;;;4.33;2.33;;;;;;;;;;5053227;28;20449;-51
2023/07/12 05:00:58;;;;;;;4.13;2.37;;;;;;;;;;5053055;28;20958;-53
2023/07/12 05:03:24;;;;;;;4.03;2.60;;;;;;;;;;5053209;28;20423;-49
2023/07/12 05:05:50;;;;;;;4.37;2.60;;;;;;;;;;5053209;28;20413;-52
2023/07/12 05:08:18;;;;;;;3.83;2.97;;;;;;;;;;5052960;28;20421;-52
2023/07/12 05:10:44;;;;;;;3.77;2.40;;;;;;;;;;5053042;28;20760;-52
2023/07/12 05:13:10;;;;;;;7.07;2.53;;;;;;;;;;5053344;28;20389;-52
2023/07/12 05:15:36;;;;;;;3.37;2.20;;;;;;;;;;5052786;28;20884;-52
2023/07/12 05:18:02;;;;;;;4.30;2.30;;;;;;;;;;5052931;28;20456;-52
2023/07/12 05:20:28;;;;;;;10.00;2.57;;;;;;;;;;5052397;28;20424;-51
2023/07/12 05:22:54;;;;;;;3.20;2.00;;;;;;;;;;5052841;28;20403;-52
2023/07/12 05:25:21;;;;;;;7.60;2.57;;;;;;;;;;5053092;28;20422;-52
2023/07/12 05:27:49;;;;;;;2.20;2.00;;;;;;;;;;5052750;28;20460;-51
2023/07/12 05:30:16;;;;;;;3.50;2.10;;;;;;;;;;5052413;28;20418;-52
2023/07/12 05:32:42;;;;;;;2.90;2.00;;;;;;;;;;5052740;28;20382;-52
2023/07/12 05:35:08;;;;;;;2.10;1.90;;;;;;;;;;5052652;28;20386;-50
2023/07/12 05:37:34;;;;;;;2.00;1.90;;;;;;;;;;5052479;28;20435;-52
2023/07/12 05:40:00;;;;;;;2.13;1.93;;;;;;;;;;5052294;28;20453;-52
2023/07/12 05:42:26;;;;;;;2.07;1.80;;;;;;;;;;5052578;28;20381;-52
2023/07/12 05:44:52;;;;;;;2.67;1.93;;;;;;;;;;5053026;28;20379;-52
2023/07/12 05:47:18;;;;;;;3.63;2.10;;;;;;;;;;5054797;28;20895;-51
2023/07/12 05:49:44;;;;;;;5.23;1.60;;;;;;;;;;5052090;28;20870;-50
2023/07/12 05:52:10;;;;;;;3.30;1.50;;;;;;;;;;5052437;28;20770;-52
2023/07/12 05:54:37;;;;;;;1.57;1.40;;;;;;;;;;5052173;28;20382;-52
2023/07/12 05:57:04;;;;;;;4.30;1.90;;;;;;;;;;5052450;28;20413;-51
2023/07/12 05:59:30;;;;;;;2.47;2.20;;;;;;;;;;5049305;28;20943;-53
2023/07/12 06:01:57;;;;;;;2.20;1.57;;;;;;;;;;5048935;28;20429;-52
2023/07/12 06:04:24;;;;;;;1.63;1.53;;;;;;;;;;5051771;28;20396;-52
2023/07/12 06:06:52;;;;;;;2.53;1.60;;;;;;;;;;5051997;28;20427;-52
2023/07/12 06:09:18;;;;;;;2.17;1.60;;;;;;;;;;5051961;28;20510;-52
2023/07/12 06:11:44;;;;;;;2.03;1.87;;;;;;;;;;5051742;28;20487;-52
2023/07/12 06:14:10;;;;;;;2.77;1.80;;;;;;;;;;5051769;28;20384;-52
2023/07/12 06:16:36;;;;;;;1.63;1.53;;;;;;;;;;5051865;28;20450;-52
2023/07/12 06:19:03;;;;;;;2.53;1.77;;;;;;;;;;5058685;28;20419;-52
2023/07/12 06:21:29;;;;;;;2.90;2.00;;;;;;;;;;5051596;28;20599;-52
2023/07/12 06:23:57;;;;;;;1.97;1.77;;;;;;;;;;5051775;28;20384;-52
2023/07/12 06:26:23;;;;;;;2.10;1.60;;;;;;;;;;5051814;28;20387;-52
2023/07/12 06:28:49;;;;;;;2.40;1.87;;;;;;;;;;5051591;28;20503;-52
2023/07/12 06:31:15;;;;;;;4.53;1.90;;;;;;;;;;5050789;28;20425;-52
2023/07/12 06:33:42;;;;;;;2.50;1.70;;;;;;;;;;5051426;28;20415;-52
2023/07/12 06:36:08;;;;;;;1.83;1.57;;;;;;;;;;5051646;28;20417;-51
2023/07/12 06:38:36;;;;;;;2.17;1.83;;;;;;;;;;5041483;28;20429;-51
2023/07/12 06:41:03;;;;;;;2.27;2.00;;;;;;;;;;5051323;28;20438;-52
2023/07/12 06:43:29;;;;;;;3.20;1.87;;;;;;;;;;5051443;28;20420;-51
2023/07/12 06:45:55;;;;;;;2.37;1.70;;;;;;;;;;5051519;28;20830;-52
2023/07/12 06:48:22;;;;;;;3.07;2.10;;;;;;;;;;5051505;28;20528;-52
2023/07/12 06:50:50;;;;;;;3.20;2.03;;;;;;;;;;5051242;28;20411;-52
2023/07/12 06:53:17;;;;;;;6.23;2.30;;;;;;;;;;5051375;28;20386;-51
2023/07/12 06:55:45;;;;;;;2.20;2.10;;;;;;;;;;5051259;28;20389;-52
2023/07/12 06:58:11;;;;;;;2.97;2.17;;;;;;;;;;5051294;28;20467;-52
2023/07/12 07:00:41;;;;;;;3.93;2.30;;;;;;;;;;5050933;28;20478;-52
2023/07/12 07:03:09;;;;;;;2.20;2.00;;;;;;;;;;5051364;28;20443;-52
2023/07/12 07:05:35;;;;;;;3.80;2.90;;;;;;;;;;5051220;28;20799;-52
2023/07/12 07:08:01;;;;;;;4.03;2.60;;;;;;;;;;5051116;28;20418;-52
2023/07/12 07:10:27;;;;;;;3.20;2.87;;;;;;;;;;5051057;28;20780;-53
2023/07/12 07:12:53;;;;;;;4.73;3.40;;;;;;;;;;5051254;28;20417;-52
2023/07/12 07:15:19;;;;;;;5.60;3.63;;;;;;;;;;5051546;28;20553;-52
2023/07/12 07:17:45;;;;;;;5.00;3.70;;;;;;;;;;5051092;28;20940;-53
2023/07/12 07:20:11;;;;;;;4.90;3.50;;;;;;;;;;5050964;28;20437;-52
2023/07/12 07:22:37;;;;;;;4.17;3.80;;;;;;;;;;5058883;28;20506;-52
2023/07/12 07:25:04;;;;;;;3.83;3.53;;;;;;;;;;5051011;28;20407;-51
2023/07/12 07:27:30;;;;;;;5.77;3.53;;;;;;;;;;5050866;28;20417;-51
2023/07/12 07:29:56;;;;;;;4.80;3.33;;;;;;;;;;5050864;28;20411;-52
2023/07/12 07:32:23;;;;;;;4.13;3.40;;;;;;;;;;5051001;28;20844;-52
2023/07/12 07:34:49;;;;;;;5.47;3.73;;;;;;;;;;5050869;28;20491;-52
2023/07/12 07:37:15;;;;;;;6.33;3.13;;;;;;;;;;5050968;28;20494;-52
2023/07/12 07:39:41;;;;;;;3.70;2.77;;;;;;;;;;5050617;28;21024;-51
2023/07/12 07:42:08;;;;;;;3.50;3.17;;;;;;;;;;5051410;28;20408;-51
2023/07/12 07:44:34;;;;;;;3.93;3.30;;;;;;;;;;5056825;28;20397;-51
2023/07/12 07:47:00;;;;;;;5.70;3.80;;;;;;;;;;5045261;28;20774;-53
2023/07/12 07:49:26;;;;;;;3.93;3.30;;;;;;;;;;5054349;28;20945;-52
2023/07/12 07:51:54;;;;;;;4.27;2.60;;;;;;;;;;5052124;28;20440;-52
2023/07/12 07:54:20;;;;;;;8.57;2.97;;;;;;;;;;5050539;28;20437;-52
2023/07/12 07:56:46;;;;;;;5.27;3.30;;;;;;;;;;5053366;28;20411;-52
2023/07/12 07:59:12;;;;;;;5.80;3.07;;;;;;;;;;5053837;28;20415;-52
2023/07/12 08:01:38;;;;;;;5.87;3.00;;;;;;;;;;5053173;28;20474;-52
2023/07/12 08:04:07;;;;;;;4.67;2.70;;;;;;;;;;5054835;28;20410;-51
2023/07/12 08:06:33;;;;;;;3.80;2.60;;;;;;;;;;5054064;28;20501;-51
2023/07/12 08:08:59;;;;;;;7.03;2.53;;;;;;;;;;5054253;28;20927;-53
2023/07/12 08:11:27;;;;;;;2.10;1.90;;;;;;;;;;5053782;28;20424;-52
2023/07/12 08:13:53;;;;;;;6.33;3.17;;;;;;;;;;5054427;28;20509;-52
2023/07/12 08:16:20;;;;;;;4.63;2.27;;;;;;;;;;5054380;28;20474;-52
2023/07/12 08:18:49;;;;;;;5.60;2.80;;;;;;;;;;5054084;28;20455;-52
2023/07/12 08:21:14;;;;;;;3.13;2.50;;;;;;;;;;5053876;28;20467;-52
2023/07/12 08:23:40;;;;;;;5.83;2.60;;;;;;;;;;5053983;28;20410;-52
2023/07/12 08:26:06;;;;;;;3.63;2.40;;;;;;;;;;5053876;28;20409;-52
2023/07/12 08:28:32;;;;;;;2.47;2.27;;;;;;;;;;5053924;28;20432;-52
2023/07/12 08:30:58;;;;;;;3.03;1.90;;;;;;;;;;5053697;28;20444;-52
2023/07/12 08:33:24;;;;;;;1.90;1.80;;;;;;;;;;5053746;28;20409;-51
2023/07/12 08:35:50;;;;;;;3.50;2.30;;;;;;;;;;5053826;28;20838;-52
2023/07/12 08:38:18;;;;;;;2.53;1.97;;;;;;;;;;5053803;28;20443;-52
2023/07/12 08:40:46;;;;;;;3.00;1.90;;;;;;;;;;5053234;28;20497;-52
2023/07/12 08:43:16;;;;;;;5.53;2.40;;;;;;;;;;5053700;28;20484;-52
2023/07/12 08:45:43;;;;;;;3.63;1.80;;;;;;;;;;5045889;28;20810;-51
2023/07/12 08:48:17;;;;;;;9.03;2.17;;;;;;;;;;5053401;28;20515;-53
2023/07/12 08:50:44;;;;;;;4.33;2.00;;;;;;;;;;5045804;28;20448;-52
2023/07/12 08:53:17;;;;;;;2.30;2.10;;;;;;;;;;5053368;28;20751;-52
2023/07/12 08:55:43;;;;;;;2.63;1.63;;;;;;;;;;5045693;28;20403;-52
2023/07/12 08:58:21;;;;;;;3.33;2.00;;;;;;;;;;5053191;28;20784;-53
2023/07/12 09:00:52;;;;;;;3.60;2.10;;;;;;;;;;5050006;28;20468;-52
2023/07/12 09:03:19;;;;;;;3.70;1.87;;;;;;;;;;5052737;28;20413;-52
2023/07/12 09:05:45;;;;;;;2.13;1.87;;;;;;;;;;5053157;28;20946;-52
2023/07/12 09:08:19;;;;;;;1.97;1.80;;;;;;;;;;5053058;28;20526;-52
2023/07/12 09:10:44;;;;;;;3.33;2.20;;;;;;;;;;5045768;28;20918;-52
2023/07/12 09:13:11;;;;;;;5.97;2.50;;;;;;;;;;5053163;28;20458;-52
2023/07/12 09:15:39;;;;;;;3.07;1.97;;;;;;;;;;5053126;28;20405;-53
2023/07/12 09:18:07;;;;;;;2.10;2.00;;;;;;;;;;5052954;28;20462;-52
2023/07/12 09:20:34;;;;;;;2.20;2.10;;;;;;;;;;5052765;28;20463;-52
2023/07/12 09:23:01;;;;;;;3.47;2.33;;;;;;;;;;5053043;28;20452;-52
2023/07/12 09:25:35;;;;;;;3.57;2.40;;;;;;;;;;5052836;28;20419;-51
2023/07/12 09:28:01;;;;;;;4.87;2.40;;;;;;;;;;5052658;28;20993;-52
2023/07/12 09:30:29;;;;;;;3.30;2.10;;;;;;;;;;5052651;28;20820;-52
2023/07/12 09:33:00;;;;;;;4.70;2.07;;;;;;;;;;5051290;28;20950;-51
2023/07/12 09:35:29;;;;;;;2.67;1.90;;;;;;;;;;5052694;28;20919;-52
2023/07/12 09:38:04;;;;;;;4.70;2.17;;;;;;;;;;5052650;28;20512;-52
2023/07/12 09:40:35;;;;;;;5.23;1.90;;;;;;;;;;5052419;28;20453;-52
2023/07/12 09:43:03;;;;;;;2.80;1.97;;;;;;;;;;5052509;28;20418;-53
2023/07/12 09:45:33;;;;;;;4.80;2.30;;;;;;;;;;5052325;28;20414;-53
2023/07/12 09:48:22;;;;;;;4.30;2.17;;;;;;;;;;5048443;28;20447;-52
2023/07/12 09:50:58;;;;;;;1.77;1.67;;;;;;;;;;5056427;28;20769;-53
2023/07/12 09:53:44;;;;;;;4.53;2.00;;;;;;;;;;5045092;28;20418;-53
2023/07/12 09:56:28;;;;;;;3.40;2.60;;;;;;;;;;5043660;28;20420;-53
2023/07/12 09:59:00;;;;;;;3.33;2.00;;;;;;;;;;5042510;28;20445;-52
2023/07/12 10:01:45;;;;;;;4.60;2.50;;;;;;;;;;5045196;28;20466;-52
2023/07/12 10:04:34;;;;;;;3.30;2.27;;;;;;;;;;5048240;28;20477;-53
2023/07/12 10:07:03;;;;;;;5.00;3.03;;;;;;;;;;5040134;28;20598;-51
2023/07/12 10:09:35;;;;;;;5.40;2.80;;;;;;;;;;5055791;28;21008;-53
2023/07/12 10:12:23;;;;;;;3.97;2.23;;;;;;;;;;5043333;28;20416;-50
2023/07/12 10:14:52;;;;;;;7.00;2.93;;;;;;;;;;5045425;28;20819;-52
2023/07/12 10:17:22;;;;;;;3.97;2.13;;;;;;;;;;5052632;28;20397;-51
2023/07/12 10:19:52;;;;;;;2.53;2.00;;;;;;;;;;5034552;28;20464;-51
2023/07/12 10:22:31;;;;;;;4.10;2.20;;;;;;;;;;5035945;28;20418;-52
2023/07/12 10:24:58;;;;;;;2.90;2.27;;;;;;;;;;5052529;28;20413;-51
2023/07/12 10:27:26;;;;;;;3.97;2.47;;;;;;;;;;5053224;28;20454;-51
2023/07/12 10:29:57;;;;;;;3.90;2.60;;;;;;;;;;5059959;28;20491;-51
2023/07/12 10:32:25;;;;;;;4.30;2.63;;;;;;;;;;5052765;28;20416;-52
2023/07/12 10:35:10;;;;;;;4.60;2.40;;;;;;;;;;5052575;28;20412;-52
2023/07/12 10:37:40;;;;;;;3.70;2.40;;;;;;;;;;5052160;28;20538;-52
2023/07/12 10:40:12;;;;;;;2.83;2.23;;;;;;;;;;5050303;28;20756;-49
2023/07/12 10:42:42;;;;;;;2.53;2.33;;;;;;;;;;5043404;28;20416;-49
2023/07/12 10:45:17;;;;;;;4.40;2.43;;;;;;;;;;5053985;28;20403;-49
2023/07/12 10:47:43;;;;;;;4.73;2.20;;;;;;;;;;5050272;28;21077;-49
2023/07/12 10:50:32;;;;;;;4.53;2.40;;;;;;;;;;5051232;28;20406;-51
2023/07/12 10:53:17;;;;;;;5.90;2.23;;;;;;;;;;5038482;28;20569;-50
2023/07/12 10:55:48;;;;;;;3.80;2.53;;;;;;;;;;5051426;28;20470;-50
2023/07/12 10:58:23;;;;;;;2.33;2.13;;;;;;;;;;5051158;28;20441;-49
2023/07/12 11:00:51;;;;;;;14.23;2.90;;;;;;;;;;5049988;28;20480;-50
2023/07/12 11:03:20;;;;;;;4.63;2.20;;;;;;;;;;5048761;28;20436;-52
2023/07/12 11:05:55;;;;;;;5.70;2.37;;;;;;;;;;5038579;28;20440;-49
2023/07/12 11:08:34;;;;;;;3.00;2.60;;;;;;;;;;5042203;28;20846;-50
2023/07/12 11:11:02;;;;;;;8.40;2.53;;;;;;;;;;5050267;28;20791;-50
2023/07/12 11:13:34;;;;;;;2.77;1.90;;;;;;;;;;5050733;28;20492;-51
2023/07/12 11:16:02;;;;;;;3.83;2.30;;;;;;;;;;5050518;28;20424;-52
2023/07/12 11:18:36;;;;;;;4.93;2.27;;;;;;;;;;5053643;28;20482;-52
2023/07/12 11:21:07;;;;;;;9.90;2.50;;;;;;;;;;5054689;28;20557;-50
2023/07/12 11:23:39;;;;;;;2.97;2.40;;;;;;;;;;5055195;28;20413;-51
2023/07/12 11:26:19;;;;;;;2.30;2.10;;;;;;;;;;5054735;28;20420;-52
2023/07/12 11:28:45;;;;;;;2.37;2.07;;;;;;;;;;5048056;28;20459;-49
2023/07/12 11:31:17;;;;;;;8.03;2.07;;;;;;;;;;5054772;28;20405;-49
2023/07/12 11:33:49;;;;;;;3.23;1.83;;;;;;;;;;5047427;28;20420;-49
2023/07/12 11:36:20;;;;;;;2.83;1.77;;;;;;;;;;5054818;28;20417;-50
2023/07/12 11:38:49;;;;;;;2.40;2.20;;;;;;;;;;5055111;28;20829;-50
2023/07/12 11:41:17;;;;;;;2.43;1.73;;;;;;;;;;5052180;28;21009;-50
2023/07/12 11:43:43;;;;;;;4.87;1.90;;;;;;;;;;5048898;28;20696;-51
2023/07/12 11:46:19;;;;;;;2.67;1.90;;;;;;;;;;5050292;28;20450;-52
2023/07/12 11:48:50;;;;;;;2.50;1.73;;;;;;;;;;5048158;28;20891;-50
2023/07/12 11:51:18;;;;;;;2.77;1.63;;;;;;;;;;5050753;28;20413;-50
2023/07/12 11:53:57;;;;;;;3.50;2.00;;;;;;;;;;5053336;28;20416;-50
2023/07/12 11:59:29;;;;;;;2.23;1.70;;;;;;;;;;5056541;28;20470;-49
2023/07/12 12:01:55;;;;;;;5.60;1.70;;;;;;;;;;5054180;28;20523;-49
2023/07/12 12:04:22;;;;;;;21.53;4.50;;;;;;;;;;5054180;28;20413;-49
2023/07/12 12:06:51;;;;;;;16.40;4.37;;;;;;;;;;5054153;28;20429;-50
2023/07/12 12:09:17;;;;;;;13.20;4.27;;;;;;;;;;5054174;28;20907;-49
2023/07/12 12:11:44;;;;;;;3.33;1.80;;;;;;;;;;5054254;28;20451;-49
2023/07/12 12:14:19;;;;;;;3.87;1.90;;;;;;;;;;5054242;28;20409;-50
2023/07/12 12:16:55;;;;;;;3.70;1.73;;;;;;;;;;5050442;28;20405;-50
2023/07/12 12:19:26;;;;;;;2.03;1.60;;;;;;;;;;5053959;28;20441;-50
2023/07/12 12:21:59;;;;;;;4.53;1.93;;;;;;;;;;5053791;28;20475;-50
2023/07/12 12:24:25;;;;;;;3.00;1.80;;;;;;;;;;5053999;28;20855;-50
2023/07/12 12:26:51;;;;;;;5.43;1.57;;;;;;;;;;5054092;28;20786;-50
2023/07/12 12:29:40;;;;;;;2.90;1.57;;;;;;;;;;5052770;28;20422;-49
2023/07/12 12:32:15;;;;;;;2.50;1.93;;;;;;;;;;5052248;28;20413;-51
2023/07/12 12:34:51;;;;;;;3.70;2.13;;;;;;;;;;5053659;28;20432;-49
2023/07/12 12:37:20;;;;;;;1.43;1.33;;;;;;;;;;5053743;28;20401;-50
2023/07/12 12:40:04;;;;;;;5.67;1.67;;;;;;;;;;5053438;28;20470;-50
2023/07/12 12:42:32;;;;;;;1.93;1.40;;;;;;;;;;5052877;28;20436;-50
2023/07/12 12:44:58;;;;;;;3.50;2.17;;;;;;;;;;5054925;28;20406;-50
2023/07/12 12:47:28;;;;;;;3.20;1.67;;;;;;;;;;5055347;28;20932;-50
2023/07/12 12:49:55;;;;;;;4.03;1.63;;;;;;;;;;5053356;28;20909;-52
2023/07/12 12:52:29;;;;;;;3.23;1.90;;;;;;;;;;5053477;28;20444;-52
2023/07/12 12:54:57;;;;;;;3.03;1.80;;;;;;;;;;5053314;28;20910;-51
2023/07/12 12:57:23;;;;;;;4.60;2.37;;;;;;;;;;5053428;28;20421;-51
2023/07/12 12:59:50;;;;;;;1.87;1.73;;;;;;;;;;5053065;28;20899;-51
2023/07/12 13:02:17;;;;;;;2.07;1.80;;;;;;;;;;5053364;28;20783;-50
2023/07/12 13:04:44;;;;;;;2.40;1.33;;;;;;;;;;5053105;28;20409;-51
2023/07/12 13:07:20;;;;;;;1.30;1.20;;;;;;;;;;5052972;28;20923;-50
2023/07/12 13:09:46;;;;;;;5.10;2.83;;;;;;;;;;5047577;28;20898;-51
2023/07/12 13:12:20;;;;;;;2.77;1.87;;;;;;;;;;5053122;28;20415;-49
2023/07/12 13:14:46;;;;;;;5.70;1.70;;;;;;;;;;5045952;28;20405;-49
2023/07/12 13:17:15;;;;;;;2.10;1.57;;;;;;;;;;5052931;28;20428;-49
2023/07/12 13:19:41;;;;;;;3.93;1.87;;;;;;;;;;5044870;28;20413;-49
2023/07/12 13:22:11;;;;;;;3.30;1.70;;;;;;;;;;5053106;28;20413;-49
2023/07/12 13:24:37;;;;;;;3.50;1.70;;;;;;;;;;5052721;28;20413;-52
2023/07/12 13:27:03;;;;;;;3.13;1.57;;;;;;;;;;5052705;28;20420;-49
2023/07/12 13:29:29;;;;;;;3.00;2.03;;;;;;;;;;5052575;28;20440;-50
2023/07/12 13:31:57;;;;;;;3.93;1.50;;;;;;;;;;5052351;28;20421;-49
2023/07/12 13:34:24;;;;;;;1.50;1.40;;;;;;;;;;5052567;28;20504;-50
2023/07/12 13:36:50;;;;;;;3.10;2.00;;;;;;;;;;5052558;28;20885;-52
2023/07/12 13:39:18;;;;;;;2.87;1.60;;;;;;;;;;5052372;28;20509;-50
2023/07/12 13:41:48;;;;;;;4.77;2.30;;;;;;;;;;5052210;28;20907;-49
2023/07/12 13:44:15;;;;;;;9.17;2.47;;;;;;;;;;5052384;28;20463;-49
2023/07/12 13:46:44;;;;;;;1.60;1.27;;;;;;;;;;5052213;28;20401;-50
2023/07/12 13:49:12;;;;;;;4.43;1.73;;;;;;;;;;5052498;28;20421;-51
2023/07/12 13:51:38;;;;;;;1.60;1.50;;;;;;;;;;5052260;28;20551;-50
2023/07/12 13:54:04;;;;;;;4.23;1.40;;;;;;;;;;5052257;28;20485;-51
2023/07/12 13:56:30;;;;;;;2.70;1.43;;;;;;;;;;5052245;28;20774;-51
2023/07/12 13:58:56;;;;;;;2.27;1.40;;;;;;;;;;5051930;28;20530;-52
2023/07/12 14:01:25;;;;;;;5.47;1.87;;;;;;;;;;5051436;28;20274;-49
2023/07/12 14:03:51;;;;;;;4.13;1.30;;;;;;;;;;5052025;28;20400;-51
2023/07/12 14:06:17;;;;;;;3.50;1.70;;;;;;;;;;5051935;28;20421;-50
2023/07/12 14:08:43;;;;;;;2.13;1.40;;;;;;;;;;5051838;28;20433;-50
2023/07/12 14:11:35;;;;;;;2.70;1.63;;;;;;;;;;5051802;28;20409;-53
2023/07/12 14:14:01;;;;;;;2.07;1.50;;;;;;;;;;5043359;28;20428;-49
2023/07/12 14:16:29;;;;;;;2.73;1.30;;;;;;;;;;5051827;28;20413;-49
2023/07/12 14:18:56;;;;;;;5.00;1.90;;;;;;;;;;5050786;28;20432;-51
2023/07/12 14:21:24;;;;;;;5.53;1.63;;;;;;;;;;5051222;28;20990;-49
2023/07/12 14:23:51;;;;;;;3.07;1.40;;;;;;;;;;5051809;28;20428;-50
2023/07/12 14:26:22;;;;;;;2.00;1.50;;;;;;;;;;5051673;28;20393;-50
2023/07/12 14:28:49;;;;;;;3.63;1.57;;;;;;;;;;5051704;28;20941;-50
2023/07/12 14:31:16;;;;;;;6.93;1.60;;;;;;;;;;5051477;28;20505;-49
2023/07/12 14:33:42;;;;;;;5.03;1.90;;;;;;;;;;5051655;28;20492;-49
2023/07/12 14:36:09;;;;;;;1.87;1.40;;;;;;;;;;5051711;28;20441;-50
2023/07/12 14:38:35;;;;;;;3.43;1.53;;;;;;;;;;5051457;28;20444;-52
2023/07/12 14:41:02;;;;;;;1.93;1.20;;;;;;;;;;5051045;28;20464;-49
2023/07/12 14:43:28;;;;;;;6.70;1.40;;;;;;;;;;5050974;28;20893;-51
2023/07/12 14:45:56;;;;;;;4.53;1.50;;;;;;;;;;5051482;28;20995;-50
2023/07/12 14:48:22;;;;;;;9.00;1.33;;;;;;;;;;5050538;28;20433;-50
2023/07/12 14:50:48;;;;;;;3.03;1.83;;;;;;;;;;5050976;28;20484;-49
2023/07/12 14:53:15;;;;;;;3.77;3.00;;;;;;;;;;5050686;28;20413;-49